Aérodrome :
LOGIN :

S'inscrire | Disclaimer

   EN    FR    IT 

 










Légende :    VFR   VFR Marginal   IFR   IFR Intensif   IFR Très Intensif
Visi : 
Plafond : 
>= 8 km
>= 3000ft
5 à 8 km
1000 à 3000 ft
1500m à 5 km
500 à 1000 ft
800 à 1500m
200 à 500 ft
< 800m
< 200 ft
Symboles :   Orages  Brouillard  Fortes neiges  Fortes précipitations  Vent > 20 kt
SIGMETs :   Divers  Orages  Givrage  Turbulence  Onde Orograph.  Cendres Volcan.






- Altitude de l'aérodrome : 600 ft
- Code IATA : VIE


LOWW - Vienna Schwechat

DERNIER METAR :
  • 210520Z 14003KT 1000 0250W R16/P1500U R29/P1500N FZBCFG BKN001 M05/M06 Q1043 R88/19//95 TEMPO 0400 FZFG

METARs EXPIRÉS :
  • 210450Z 17002KT 3000 0300W R16/P1500D R29/P1500N FZBCFG SCT001 M05/M05 Q1043 R88/19//95 TEMPO 0400 FZFG VV001
  • 210420Z 16004KT 1500 0500S R16/0750D R29/1100U FZBCFG BKN001 M05/M05 Q1044 R88/19//95 TEMPO 0400 FZFG VV001
  • 210350Z 15004KT 0450 R16/0600U R29/0800N FZFG BKN001 M04/M04 Q1044 R88/19//95 TEMPO 0600
  • 210320Z 16003KT 0400 R29/0450D FZBCFG BKN001 M05/M05 Q1044 R88/19//95 BECMG VV001 TEMPO 0600
  • 210250Z VRB01KT 0350 R29/0500N FZBCFG SCT001 M04/M04 Q1045 R88/19//95 BECMG VV001 TEMPO 0600

TAF TAF LOWW
Valide du 21 à 06h jusqu'au 22 à 12h UTC


210515Z 2106/2212 15004KT 1500 FZBCFG SCT001 TX04/2212Z TNM05/2106Z
TEMPO 2106/2109 0300 FZFG VV001
BECMG 2109/2111 8000 NSW FEW002 SCT004
PROB30 2111/2120 5000 BR FEW002 OVC004
BECMG 2120/2123 0800 FZFG VV001
TEMPO 2123/2209 0300
TEMPO 2210/2212 35010KT CAVOK



MET'MAP, la Météo Aéronautique d'un coup d'oeil ! - Copyright ORBIFLY Décembre 2007 - Disclaimer

ORBIFLY MET'MAP TEAM :

Programmation & Développement : Alexandra Zaïnal
Sur une idée originale de : Baudouin d'Aumeries
Assistance à la programmation : Marc-Olivier Méhu
Soutien technique & logistique : Manuel Goepfert

Contact : metmap@orbifly.com




SOURCES & CREDITS :

   NOAA